Time;durP1;ratioP1;P1;durP2;ratioP2;P2;SDS_P1;SDS_P2;PMS_P1;PMS_P2;Temp;Humidity;BMP_temperature;BMP_pressure;BME280_temperature;BME280_humidity;BME280_pressure;Samples;Min_cycle;Max_cycle;Signal;HPM_P1;HPM_P2
2022/12/16 00:00:25;;;;;;;48.67;29.75;;;-0.40;99.90;;;;;;6184362;23;20039;-80
2022/12/16 00:02:51;;;;;;;43.42;27.67;;;-0.20;99.90;;;;;;6185116;23;20032;-80
2022/12/16 00:05:18;;;;;;;53.67;30.77;;;-0.20;99.90;;;;;;6216680;23;20320;-81
2022/12/16 00:07:45;;;;;;;52.85;30.20;;;-0.50;99.90;;;;;;6189387;23;20028;-81
2022/12/16 00:10:11;;;;;;;50.97;27.20;;;-0.20;99.90;;;;;;6212717;23;20023;-83
2022/12/16 00:12:37;;;;;;;55.08;29.58;;;-0.40;99.90;;;;;;6215642;23;20013;-81
2022/12/16 00:15:58;;;;;;;52.92;29.83;;;-0.60;99.90;;;;;;6215528;23;20376;-82
2022/12/16 00:18:24;;;;;;;49.38;27.67;;;-0.80;99.90;;;;;;6191469;23;20439;-80
2022/12/16 00:20:54;;;;;;;53.28;28.70;;;-0.90;99.90;;;;;;6188894;23;20451;-80
2022/12/16 00:23:20;;;;;;;60.90;31.02;;;-0.70;99.90;;;;;;6187419;23;20028;-78
2022/12/16 00:25:46;;;;;;;54.92;31.10;;;-0.80;99.90;;;;;;6211284;23;20016;-85
2022/12/16 00:28:13;;;;;;;54.80;31.80;;;-0.80;99.90;;;;;;6186075;23;20086;-84
2022/12/16 00:30:59;;;;;;;52.53;29.30;;;-0.60;99.90;;;;;;6209316;23;20021;-82
2022/12/16 00:33:26;;;;;;;53.90;30.55;;;-1.00;99.90;;;;;;6185352;23;20436;-80
2022/12/16 00:35:53;;;;;;;57.15;31.50;;;-0.80;99.90;;;;;;6185926;23;20355;-78
2022/12/16 00:38:20;;;;;;;49.30;26.70;;;-0.60;99.90;;;;;;6211566;23;20088;-84
2022/12/16 00:40:46;;;;;;;36.83;20.65;;;-0.30;99.90;;;;;;6208553;23;20039;-79
2022/12/16 00:43:12;;;;;;;38.42;20.13;;;-0.10;99.90;;;;;;6211939;23;20016;-78
2022/12/16 00:45:38;;;;;;;33.92;16.90;;;-0.10;99.90;;;;;;6183728;23;20013;-83
2022/12/16 00:48:04;;;;;;;30.83;15.32;;;0.00;99.90;;;;;;6208017;23;20017;-81
2022/12/16 00:50:30;;;;;;;20.88;11.27;;;0.10;99.90;;;;;;6210539;23;20017;-80
2022/12/16 00:52:56;;;;;;;16.38;9.68;;;0.60;99.90;;;;;;6211074;23;20108;-81
2022/12/16 00:55:21;;;;;;;21.92;8.27;;;0.60;99.90;;;;;;6210229;23;20020;-79
2022/12/16 00:57:47;;;;;;;17.25;7.95;;;0.90;99.90;;;;;;6206981;23;20009;-84
2022/12/16 01:00:14;;;;;;;17.75;7.28;;;1.10;99.90;;;;;;6199691;23;20036;-80
2022/12/16 01:02:47;;;;;;;16.20;6.20;;;1.10;99.90;;;;;;6157811;23;20065;-84
2022/12/16 01:05:15;;;;;;;15.85;6.47;;;1.20;99.90;;;;;;6210026;23;20020;-82
2022/12/16 01:07:42;;;;;;;12.43;5.03;;;1.00;99.90;;;;;;6188141;23;20015;-84
2022/12/16 01:10:09;;;;;;;12.00;5.10;;;1.30;99.90;;;;;;6165340;23;20020;-81
2022/12/16 01:12:35;;;;;;;11.63;4.88;;;1.40;99.90;;;;;;6167051;23;20016;-82
2022/12/16 01:15:03;;;;;;;11.05;4.80;;;1.50;99.90;;;;;;6190979;23;20032;-79
2022/12/16 01:17:28;;;;;;;11.55;5.00;;;1.50;99.90;;;;;;6167193;23;20048;-79
2022/12/16 01:19:54;;;;;;;9.93;4.43;;;1.60;99.90;;;;;;6220227;23;20064;-84
2022/12/16 01:22:21;;;;;;;9.10;4.45;;;1.50;99.90;;;;;;6165984;23;20463;-78
2022/12/16 01:24:47;;;;;;;11.77;4.80;;;1.60;99.90;;;;;;6194772;23;20078;-83
2022/12/16 01:27:14;;;;;;;10.65;4.55;;;1.70;99.90;;;;;;6195459;23;20020;-80
2022/12/16 01:29:40;;;;;;;11.32;4.53;;;1.60;99.90;;;;;;6190772;23;20092;-82
2022/12/16 01:32:06;;;;;;;8.90;4.05;;;1.70;99.90;;;;;;6165019;23;20461;-83
2022/12/16 01:34:32;;;;;;;7.18;3.78;;;1.70;99.90;;;;;;6165432;23;20019;-84
2022/12/16 01:36:57;;;;;;;8.23;3.75;;;1.70;99.90;;;;;;6189415;23;20099;-86
2022/12/16 01:39:26;;;;;;;7.57;4.03;;;1.60;99.90;;;;;;6165551;23;20021;-83
2022/12/16 01:41:52;;;;;;;7.00;4.00;;;1.70;99.90;;;;;;6169439;23;20021;-80
2022/12/16 01:44:21;;;;;;;9.43;3.80;;;1.80;99.90;;;;;;6216321;23;20009;-84
2022/12/16 01:47:02;;;;;;;9.80;3.97;;;1.80;99.90;;;;;;6188656;23;20068;-82
2022/12/16 01:49:59;;;;;;;6.95;3.63;;;1.70;99.90;;;;;;6215664;23;20433;-83
2022/12/16 01:52:35;;;;;;;8.55;3.67;;;1.90;99.90;;;;;;6019503;23;20011;-86
2022/12/16 01:55:08;;;;;;;10.43;3.80;;;1.70;99.90;;;;;;6044615;23;20050;-82
2022/12/16 01:57:45;;;;;;;5.68;4.03;;;1.90;99.90;;;;;;6064243;23;20014;-81
2022/12/16 02:00:11;;;;;;;11.50;4.40;;;1.80;99.90;;;;;;6038532;23;20447;-80
2022/12/16 02:02:37;;;;;;;9.27;3.85;;;1.90;99.90;;;;;;6062950;23;20475;-85
2022/12/16 02:05:19;;;;;;;10.18;4.00;;;1.90;99.90;;;;;;6037208;23;20055;-84
2022/12/16 02:08:03;;;;;;;10.70;4.32;;;1.80;99.90;;;;;;6061453;23;20019;-78
2022/12/16 02:10:54;;;;;;;8.55;3.85;;;1.80;99.90;;;;;;6063197;23;20019;-83
2022/12/16 02:13:25;;;;;;;8.88;4.00;;;1.80;99.90;;;;;;6039922;23;20102;-82
2022/12/16 02:16:05;;;;;;;8.48;4.13;;;1.70;99.90;;;;;;6068867;23;20044;-84
2022/12/16 02:18:45;;;;;;;10.60;4.63;;;1.70;99.90;;;;;;6040954;23;20010;-81
2022/12/16 02:21:19;;;;;;;9.48;4.20;;;1.70;99.90;;;;;;6038303;23;20026;-82
2022/12/16 02:24:22;;;;;;;8.95;4.68;;;1.60;99.90;;;;;;6036936;23;20025;-79
2022/12/16 02:27:10;;;;;;;7.85;4.75;;;1.50;99.90;;;;;;6062752;23;20045;-83
2022/12/16 02:29:56;;;;;;;6.65;4.35;;;1.60;99.90;;;;;;6135042;23;20016;-81
2022/12/16 02:32:31;;;;;;;11.48;4.78;;;1.50;99.90;;;;;;6186979;23;20013;-80
2022/12/16 02:35:09;;;;;;;7.15;4.47;;;1.50;99.90;;;;;;6185136;23;20482;-81
2022/12/16 02:37:56;;;;;;;11.25;4.95;;;1.50;99.90;;;;;;6162357;23;20012;-83
2022/12/16 02:40:39;;;;;;;11.70;5.20;;;1.40;99.90;;;;;;6162998;23;20020;-84
2022/12/16 02:43:33;;;;;;;10.43;5.25;;;1.50;99.90;;;;;;6188612;23;20012;-84
2022/12/16 02:45:59;;;;;;;12.45;4.85;;;1.50;99.90;;;;;;6159088;23;20047;-80
2022/12/16 02:48:25;;;;;;;10.10;5.28;;;1.50;99.90;;;;;;6161286;23;20398;-81
2022/12/16 02:50:51;;;;;;;8.05;5.30;;;1.60;99.90;;;;;;6187135;23;20044;-86
2022/12/16 02:53:20;;;;;;;11.48;5.47;;;1.50;99.90;;;;;;6164055;23;20016;-83
2022/12/16 02:55:54;;;;;;;11.05;5.18;;;1.50;99.90;;;;;;6186760;23;20016;-80
2022/12/16 02:58:51;;;;;;;10.77;5.20;;;1.40;99.90;;;;;;6215209;23;20048;-79
2022/12/16 03:01:45;;;;;;;12.82;5.43;;;1.50;99.90;;;;;;6179940;23;20017;-80
2022/12/16 03:04:20;;;;;;;11.20;5.68;;;1.40;99.90;;;;;;6186169;23;20361;-82
2022/12/16 03:06:49;;;;;;;10.15;5.13;;;1.50;99.90;;;;;;6185211;23;20027;-81
2022/12/16 03:09:22;;;;;;;6.90;4.93;;;1.50;99.90;;;;;;6183987;23;20048;-85
2022/12/16 03:11:51;;;;;;;12.02;5.90;;;1.50;99.90;;;;;;6209500;23;20095;-83
2022/12/16 03:14:19;;;;;;;10.98;5.68;;;1.60;99.90;;;;;;6183065;23;20448;-85
2022/12/16 03:16:48;;;;;;;11.38;6.28;;;1.50;99.90;;;;;;6182610;23;20048;-81
2022/12/16 03:19:13;;;;;;;10.23;6.13;;;1.50;99.90;;;;;;6207771;23;20012;-81
2022/12/16 03:22:06;;;;;;;17.95;6.68;;;1.60;99.90;;;;;;6185155;23;20112;-82
2022/12/16 03:24:32;;;;;;;12.38;6.80;;;1.50;99.90;;;;;;6193120;23;20016;-84
2022/12/16 03:27:23;;;;;;;14.98;7.50;;;1.50;99.90;;;;;;6212288;23;20099;-83
2022/12/16 03:29:58;;;;;;;14.73;8.23;;;1.50;99.90;;;;;;6210026;23;20103;-79
2022/12/16 03:32:28;;;;;;;14.20;8.63;;;1.60;99.90;;;;;;6183945;23;20047;-80
2022/12/16 03:35:14;;;;;;;18.52;9.00;;;1.60;99.90;;;;;;6208608;23;20013;-82
2022/12/16 03:37:43;;;;;;;26.13;10.63;;;1.80;99.90;;;;;;6213228;23;20320;-80
2022/12/16 03:40:11;;;;;;;14.93;10.80;;;1.60;99.90;;;;;;6187047;23;20016;-79
2022/12/16 03:42:38;;;;;;;19.98;12.95;;;1.50;99.90;;;;;;6211696;23;20016;-83
2022/12/16 03:45:07;;;;;;;28.95;18.63;;;1.60;99.90;;;;;;6187828;23;20488;-84
2022/12/16 03:47:33;;;;;;;32.85;24.52;;;1.60;99.90;;;;;;6183652;23;20173;-83
2022/12/16 03:49:58;;;;;;;33.40;23.38;;;1.80;99.90;;;;;;6183379;23;20091;-81
2022/12/16 03:52:24;;;;;;;36.60;26.48;;;1.80;99.90;;;;;;6210563;23;20019;-85
2022/12/16 03:54:50;;;;;;;50.80;33.10;;;1.60;99.90;;;;;;6207518;23;20023;-80
2022/12/16 03:57:15;;;;;;;49.97;34.22;;;1.80;99.90;;;;;;6184867;23;20021;-84
2022/12/16 04:00:25;;;;;;;53.92;35.80;;;1.60;99.90;;;;;;6191219;23;20059;-80
2022/12/16 04:02:51;;;;;;;55.72;34.60;;;1.60;99.90;;;;;;6192011;23;20095;-82
2022/12/16 04:05:17;;;;;;;64.10;38.88;;;1.80;99.90;;;;;;6166796;23;20024;-82
2022/12/16 04:07:43;;;;;;;63.35;37.38;;;1.60;99.90;;;;;;6167658;23;20055;-80
2022/12/16 04:10:09;;;;;;;58.10;37.33;;;1.70;99.90;;;;;;6193556;23;20021;-81
2022/12/16 04:29:24;;;;;;;79.53;46.45;;;1.40;99.90;;;;;;6221432;23;20044;-83
2022/12/16 04:31:51;;;;;;;81.38;42.45;;;1.10;99.90;;;;;;6169988;23;20019;-80
2022/12/16 04:34:26;;;;;;;81.60;39.60;;;1.00;99.90;;;;;;6218701;23;20012;-85
